Time;durP1;ratioP1;P1;durP2;ratioP2;P2;SDS_P1;SDS_P2;PMS_P1;PMS_P2;Temp;Humidity;BMP_temperature;BMP_pressure;BME280_temperature;BME280_humidity;BME280_pressure;Samples;Min_cycle;Max_cycle;Signal;HPM_P1;HPM_P2
2023/02/21 02:14:10;;;;;;;6.27;5.17;;;7.40;86.40;;;;;;5008876;28;20297;-88
2023/02/21 02:16:46;;;;;;;5.60;5.00;;;7.40;84.90;;;;;;4994035;28;20197;-87
2023/02/21 02:19:39;;;;;;;8.07;5.43;;;7.50;85.00;;;;;;5013156;28;20183;-87
2023/02/21 02:22:26;;;;;;;5.83;4.87;;;7.50;84.50;;;;;;5012908;28;20220;-88
2023/02/21 02:25:15;;;;;;;5.50;5.00;;;7.50;84.20;;;;;;5012926;28;20193;-88
2023/02/21 02:27:52;;;;;;;6.03;4.67;;;7.60;83.10;;;;;;5010723;28;21011;-88
2023/02/21 02:30:44;;;;;;;7.33;5.20;;;7.50;83.10;;;;;;4991854;28;20810;-88
2023/02/21 02:33:22;;;;;;;5.23;4.70;;;7.50;83.80;;;;;;5050465;23;20724;-87
2023/02/21 02:36:08;;;;;;;5.67;5.13;;;7.50;83.60;;;;;;5046086;28;20220;-85
2023/02/21 02:38:42;;;;;;;5.37;4.80;;;7.50;83.70;;;;;;5042782;28;20204;-88
2023/02/21 02:41:24;;;;;;;5.33;4.83;;;7.60;84.10;;;;;;5026327;28;20209;-87
2023/02/21 02:43:57;;;;;;;5.10;4.67;;;7.60;83.90;;;;;;5012921;28;20174;-87
2023/02/21 02:46:25;;;;;;;6.67;5.60;;;7.60;84.10;;;;;;5007789;28;20170;-86
2023/02/21 02:49:00;;;;;;;6.20;5.37;;;7.60;81.80;;;;;;5010007;28;20258;-87
2023/02/21 02:51:26;;;;;;;5.20;4.80;;;7.50;82.80;;;;;;5009145;28;20189;-87
2023/02/21 02:53:52;;;;;;;5.60;5.00;;;7.50;83.20;;;;;;5009719;28;20438;-87
2023/02/21 02:56:18;;;;;;;6.33;5.60;;;7.50;83.50;;;;;;5007515;28;20182;-89
2023/02/21 02:58:46;;;;;;;5.77;5.27;;;7.60;81.70;;;;;;5008395;28;20767;-87
2023/02/21 03:01:23;;;;;;;6.83;5.33;;;7.40;79.80;;;;;;5000540;28;20284;-89
2023/02/21 03:03:58;;;;;;;6.33;5.50;;;7.10;82.30;;;;;;5028107;28;20168;-85
2023/02/21 03:06:57;;;;;;;5.80;5.30;;;6.90;82.40;;;;;;5027108;28;20228;-88
2023/02/21 03:09:29;;;;;;;5.93;5.03;;;6.70;85.80;;;;;;5018783;28;20182;-85
2023/02/21 03:12:05;;;;;;;6.13;5.23;;;6.60;86.70;;;;;;5008521;28;20186;-85
2023/02/21 03:14:39;;;;;;;5.93;5.40;;;6.50;86.00;;;;;;5006799;28;20173;-87
2023/02/21 03:17:10;;;;;;;7.37;5.43;;;6.20;89.00;;;;;;5005652;28;20173;-89
2023/02/21 03:19:43;;;;;;;7.47;5.47;;;6.00;91.40;;;;;;5023166;28;20174;-86
2023/02/21 03:22:18;;;;;;;6.30;5.70;;;5.80;94.10;;;;;;5008024;28;20214;-86
2023/02/21 03:24:46;;;;;;;5.97;5.37;;;5.60;96.00;;;;;;5005970;28;20188;-88
2023/02/21 03:27:13;;;;;;;6.73;5.40;;;5.60;97.00;;;;;;5006180;28;20182;-86
2023/02/21 03:29:39;;;;;;;6.97;5.60;;;5.60;97.10;;;;;;5020576;28;20230;-86
2023/02/21 03:34:39;;;;;;;5.83;4.87;;;5.80;96.90;;;;;;5022578;28;20249;-85
2023/02/21 03:37:16;;;;;;;5.27;4.57;;;5.90;97.90;;;;;;5024339;28;20265;-86
2023/02/21 03:39:42;;;;;;;7.17;5.23;;;6.10;96.40;;;;;;5024251;28;20241;-85
2023/02/21 03:42:07;;;;;;;6.00;5.33;;;6.30;93.60;;;;;;5026558;28;20214;-86
2023/02/21 03:44:33;;;;;;;6.83;5.07;;;6.50;93.20;;;;;;5026752;28;20189;-86
2023/02/21 03:46:59;;;;;;;6.23;4.97;;;6.50;92.30;;;;;;5027071;28;20255;-89
2023/02/21 03:49:24;;;;;;;5.80;5.13;;;6.70;91.40;;;;;;5028299;28;20193;-87
2023/02/21 03:51:50;;;;;;;5.47;4.97;;;6.70;90.70;;;;;;5026126;28;20236;-89
2023/02/21 03:54:16;;;;;;;6.97;5.27;;;6.80;91.60;;;;;;5028614;28;20185;-87
2023/02/21 03:56:41;;;;;;;5.87;5.27;;;6.80;89.60;;;;;;5027851;28;20564;-87
2023/02/21 03:59:07;;;;;;;5.90;5.30;;;6.90;88.70;;;;;;5028294;28;20280;-86
2023/02/21 04:01:32;;;;;;;5.50;4.77;;;6.80;88.90;;;;;;5028583;28;20209;-87
2023/02/21 04:03:58;;;;;;;7.63;5.57;;;6.80;89.30;;;;;;5026853;28;20189;-87
2023/02/21 04:06:24;;;;;;;5.67;5.10;;;6.90;90.30;;;;;;5020200;28;20188;-86
2023/02/21 04:08:49;;;;;;;7.57;5.07;;;6.90;90.10;;;;;;5012381;28;20209;-87
2023/02/21 04:11:21;;;;;;;5.57;4.90;;;6.90;89.10;;;;;;5007176;28;20178;-87
2023/02/21 04:13:46;;;;;;;6.03;5.33;;;6.90;89.40;;;;;;5013904;28;20182;-88
2023/02/21 04:16:12;;;;;;;7.30;5.67;;;6.90;90.10;;;;;;4989738;28;20192;-88
2023/02/21 04:18:38;;;;;;;5.67;5.17;;;6.90;88.50;;;;;;5005766;28;20174;-87
2023/02/21 04:21:03;;;;;;;5.73;5.00;;;6.90;89.90;;;;;;5014438;28;20277;-87
2023/02/21 04:23:29;;;;;;;5.10;4.60;;;6.90;89.60;;;;;;5026359;28;20197;-89
2023/02/21 04:25:54;;;;;;;6.17;5.57;;;7.00;88.60;;;;;;5024573;28;20735;-89
2023/02/21 04:28:20;;;;;;;5.27;4.73;;;6.90;87.30;;;;;;5019127;28;20194;-86
2023/02/21 04:30:46;;;;;;;7.33;5.60;;;6.70;88.00;;;;;;5006654;28;20182;-87
2023/02/21 04:33:11;;;;;;;6.70;5.33;;;6.50;88.90;;;;;;4988918;28;20217;-87
2023/02/21 04:35:37;;;;;;;5.60;5.10;;;6.20;90.40;;;;;;5007263;28;20675;-88
2023/02/21 04:38:03;;;;;;;5.60;5.10;;;6.20;91.20;;;;;;5008375;28;20245;-86
2023/02/21 04:40:28;;;;;;;5.60;5.10;;;6.30;92.40;;;;;;5015809;28;20189;-87
2023/02/21 04:42:54;;;;;;;5.70;4.87;;;6.30;92.50;;;;;;5006225;28;20217;-87
2023/02/21 04:45:20;;;;;;;6.90;5.23;;;6.50;92.40;;;;;;5024401;28;20225;-88
2023/02/21 04:47:45;;;;;;;5.23;4.77;;;6.50;89.50;;;;;;5024447;28;20174;-88
2023/02/21 04:50:11;;;;;;;5.50;5.00;;;6.50;89.70;;;;;;5024879;28;20201;-88
2023/02/21 04:52:39;;;;;;;7.47;4.80;;;6.50;89.60;;;;;;4992437;28;20230;-88
2023/02/21 04:55:06;;;;;;;6.13;5.53;;;6.60;90.60;;;;;;5004802;28;20179;-87
2023/02/21 04:57:31;;;;;;;6.40;5.40;;;6.60;89.40;;;;;;5006164;28;20245;-88
2023/02/21 04:59:58;;;;;;;6.27;5.27;;;6.50;89.60;;;;;;5019590;28;20194;-89
2023/02/21 05:02:24;;;;;;;7.70;5.50;;;6.50;89.70;;;;;;5015950;28;20793;-88
2023/02/21 05:04:50;;;;;;;6.00;5.40;;;6.40;90.10;;;;;;5008585;28;20182;-85
2023/02/21 05:07:16;;;;;;;6.93;6.17;;;6.40;90.60;;;;;;4999081;28;20185;-87
2023/02/21 05:09:42;;;;;;;5.83;5.30;;;6.30;90.10;;;;;;5011963;28;20204;-88
2023/02/21 05:12:10;;;;;;;6.90;5.10;;;6.40;89.30;;;;;;5014826;28;20201;-87
2023/02/21 05:14:39;;;;;;;7.30;5.20;;;6.30;90.50;;;;;;5024179;28;20177;-87
2023/02/21 05:17:05;;;;;;;6.70;5.33;;;6.40;90.70;;;;;;5008392;28;20206;-87
2023/02/21 05:19:31;;;;;;;6.30;5.07;;;6.40;89.80;;;;;;5013626;28;20185;-87
2023/02/21 05:21:59;;;;;;;5.80;5.30;;;6.40;89.60;;;;;;5020711;28;20216;-87
2023/02/21 05:24:26;;;;;;;5.47;4.83;;;6.40;90.50;;;;;;5018652;28;20170;-87
2023/02/21 05:26:52;;;;;;;5.40;4.90;;;6.50;90.90;;;;;;5017145;28;20650;-88
2023/02/21 05:29:18;;;;;;;6.77;5.67;;;6.50;90.70;;;;;;5012432;28;20197;-92
2023/02/21 05:31:45;;;;;;;6.40;5.03;;;6.40;90.60;;;;;;5012260;28;20228;-88
2023/02/21 05:34:12;;;;;;;6.07;5.37;;;6.50;91.10;;;;;;5024663;28;20166;-91
2023/02/21 05:36:38;;;;;;;5.63;5.13;;;6.60;90.70;;;;;;5026163;28;20159;-91
2023/02/21 05:39:05;;;;;;;6.40;5.40;;;6.60;91.00;;;;;;5009245;28;20201;-90
2023/02/21 05:41:31;;;;;;;6.10;5.50;;;6.60;89.00;;;;;;5011341;28;20227;-90
2023/02/21 05:43:57;;;;;;;7.67;5.40;;;6.60;90.00;;;;;;5009588;28;20186;-89
2023/02/21 05:46:29;;;;;;;5.90;5.33;;;6.50;90.90;;;;;;5008933;28;20212;-90
2023/02/21 05:48:56;;;;;;;7.17;5.30;;;6.50;90.90;;;;;;5024133;28;20185;-88
2023/02/21 05:51:22;;;;;;;6.37;5.77;;;6.50;90.80;;;;;;5020382;28;20186;-90
2023/02/21 05:53:49;;;;;;;5.67;5.03;;;6.70;91.30;;;;;;5010289;28;20178;-87
2023/02/21 05:56:15;;;;;;;5.80;5.20;;;6.70;90.20;;;;;;5017386;28;20201;-88
2023/02/21 05:58:41;;;;;;;8.23;5.07;;;6.70;88.70;;;;;;5006785;28;20197;-88
2023/02/21 06:01:06;;;;;;;8.57;5.57;;;6.60;89.30;;;;;;5013707;28;20495;-89
2023/02/21 06:03:32;;;;;;;5.70;5.17;;;6.60;89.50;;;;;;5015753;28;20201;-88
2023/02/21 06:05:58;;;;;;;8.77;5.73;;;6.60;88.90;;;;;;5014523;28;20613;-90
2023/02/21 06:08:24;;;;;;;6.20;4.93;;;6.50;88.90;;;;;;5000451;28;20236;-90
2023/02/21 06:10:50;;;;;;;7.67;5.57;;;6.60;88.80;;;;;;4996402;28;20428;-89
2023/02/21 06:13:16;;;;;;;5.73;5.10;;;6.60;87.80;;;;;;5006681;28;20281;-89
2023/02/21 06:15:41;;;;;;;6.00;5.50;;;6.50;88.70;;;;;;4997880;28;20190;-89
2023/02/21 06:18:07;;;;;;;6.83;5.03;;;6.40;87.60;;;;;;5016928;28;20188;-88
2023/02/21 06:20:33;;;;;;;7.03;5.40;;;6.30;89.70;;;;;;5016816;28;20675;-90
2023/02/21 06:22:58;;;;;;;7.70;5.23;;;6.30;89.90;;;;;;5020142;28;20209;-87
2023/02/21 06:25:24;;;;;;;6.23;5.63;;;6.30;90.20;;;;;;5018664;28;20185;-89
2023/02/21 06:27:50;;;;;;;6.90;6.20;;;6.30;90.30;;;;;;5012517;28;20196;-89
2023/02/21 06:30:15;;;;;;;7.23;6.50;;;6.10;88.00;;;;;;5014870;28;20186;-88
2023/02/21 06:32:42;;;;;;;6.43;5.83;;;5.80;88.60;;;;;;5018584;28;20225;-89
2023/02/21 06:35:08;;;;;;;9.13;6.47;;;5.40;91.80;;;;;;5002095;28;20186;-88
2023/02/21 06:37:33;;;;;;;7.03;6.00;;;5.00;94.10;;;;;;5005200;28;20189;-89
2023/02/21 06:39:59;;;;;;;7.53;5.90;;;4.70;96.40;;;;;;5015298;28;20179;-89
2023/02/21 06:42:25;;;;;;;8.10;6.90;;;4.50;99.30;;;;;;5000964;28;20241;-87
2023/02/21 06:44:52;;;;;;;7.93;6.20;;;4.20;99.90;;;;;;5001119;28;20187;-90
2023/02/21 06:47:17;;;;;;;7.37;6.53;;;4.10;99.90;;;;;;5001906;28;20206;-88
2023/02/21 06:49:43;;;;;;;7.73;6.80;;;4.10;99.90;;;;;;5005508;28;20177;-89
2023/02/21 06:52:09;;;;;;;7.70;6.17;;;4.20;99.90;;;;;;5020330;28;20702;-89
2023/02/21 06:54:35;;;;;;;6.60;6.00;;;4.40;99.90;;;;;;5008297;28;20229;-88
2023/02/21 06:57:00;;;;;;;8.77;6.53;;;4.60;99.90;;;;;;5000419;28;20676;-88
2023/02/21 06:59:27;;;;;;;7.57;6.10;;;4.90;99.90;;;;;;4999189;28;20208;-89
2023/02/21 07:01:54;;;;;;;9.67;7.00;;;5.10;99.90;;;;;;4999534;28;20232;-89
2023/02/21 07:04:19;;;;;;;6.63;6.03;;;5.20;99.10;;;;;;4999360;28;20181;-88
2023/02/21 07:06:45;;;;;;;7.73;6.07;;;5.30;98.90;;;;;;5010173;28;20591;-89
2023/02/21 07:09:11;;;;;;;8.20;5.87;;;5.40;97.90;;;;;;5018599;28;20192;-91
2023/02/21 07:11:36;;;;;;;7.23;5.57;;;5.40;97.30;;;;;;5016042;28;20268;-88
2023/02/21 07:14:02;;;;;;;6.67;6.00;;;5.40;96.20;;;;;;5010503;28;20272;-89
2023/02/21 07:16:28;;;;;;;9.37;6.67;;;5.50;96.90;;;;;;5014759;28;20244;-89
2023/02/21 07:18:53;;;;;;;8.57;6.70;;;5.50;96.10;;;;;;5011735;28;20205;-90
2023/02/21 07:21:20;;;;;;;8.87;6.43;;;5.10;98.00;;;;;;5006027;28;20365;-88
2023/02/21 07:23:47;;;;;;;11.63;7.17;;;4.80;99.90;;;;;;5017973;28;20552;-88
2023/02/21 07:26:13;;;;;;;7.33;6.63;;;4.70;99.90;;;;;;5001919;28;20186;-90
2023/02/21 07:28:38;;;;;;;7.90;7.10;;;4.60;99.90;;;;;;5013942;28;20350;-89
2023/02/21 07:31:04;;;;;;;7.47;6.70;;;4.50;99.90;;;;;;4981416;28;20296;-90
2023/02/21 07:33:30;;;;;;;8.70;6.63;;;4.40;99.90;;;;;;4992804;28;20225;-90
2023/02/21 07:35:56;;;;;;;9.43;7.03;;;4.40;99.90;;;;;;5016675;28;20190;-89
2023/02/21 07:38:25;;;;;;;9.30;7.20;;;4.40;99.90;;;;;;5017241;28;20189;-89
2023/02/21 07:40:53;;;;;;;8.37;7.33;;;4.50;99.90;;;;;;5005557;28;20613;-89
2023/02/21 07:43:19;;;;;;;8.37;7.23;;;4.60;99.90;;;;;;5000442;28;20720;-88
2023/02/21 07:45:45;;;;;;;7.30;6.60;;;4.70;99.90;;;;;;4997412;28;20236;-88
2023/02/21 07:48:13;;;;;;;8.27;6.63;;;4.80;99.90;;;;;;5007884;28;20190;-90
2023/02/21 07:50:43;;;;;;;7.97;6.83;;;5.00;99.90;;;;;;5014945;28;20227;-88
2023/02/21 07:53:09;;;;;;;9.03;6.87;;;5.10;99.90;;;;;;5011086;28;20244;-89
2023/02/21 07:55:35;;;;;;;10.77;7.43;;;5.00;99.90;;;;;;5009193;28;20206;-88
2023/02/21 07:58:01;;;;;;;8.30;7.50;;;5.20;99.90;;;;;;5002202;28;20261;-88
2023/02/21 08:00:26;;;;;;;9.57;7.90;;;5.30;99.90;;;;;;4983868;28;20218;-89
2023/02/21 08:02:52;;;;;;;10.33;8.80;;;5.30;99.90;;;;;;5009554;28;20252;-87
2023/02/21 08:05:20;;;;;;;11.90;7.90;;;5.30;99.90;;;;;;5011675;28;20193;-87
2023/02/21 08:07:47;;;;;;;11.20;8.70;;;5.40;99.90;;;;;;5010707;28;20174;-90
2023/02/21 08:10:22;;;;;;;9.80;8.80;;;5.40;99.90;;;;;;5018583;28;20231;-89
2023/02/21 08:12:48;;;;;;;10.53;8.50;;;5.30;99.90;;;;;;4999904;28;20274;-89
2023/02/21 08:15:14;;;;;;;8.87;7.70;;;5.40;99.90;;;;;;5013847;28;20194;-89
2023/02/21 08:17:39;;;;;;;9.53;8.53;;;5.60;99.90;;;;;;5014685;28;20204;-88
2023/02/21 08:20:07;;;;;;;9.33;8.10;;;5.80;99.90;;;;;;5005265;28;20192;-87
2023/02/21 08:22:32;;;;;;;10.47;7.80;;;5.80;99.90;;;;;;5013956;28;20209;-89
2023/02/21 08:24:58;;;;;;;12.57;7.53;;;5.90;99.90;;;;;;5015329;28;20213;-90
2023/02/21 08:27:24;;;;;;;7.67;6.90;;;6.00;99.90;;;;;;5000354;28;20198;-88
2023/02/21 08:29:51;;;;;;;10.37;7.90;;;6.10;97.70;;;;;;4998892;28;20181;-88
2023/02/21 08:32:18;;;;;;;8.80;6.90;;;6.10;98.60;;;;;;4984296;28;20221;-88
2023/02/21 08:34:45;;;;;;;11.63;7.40;;;6.10;98.10;;;;;;5016666;28;20205;-87
2023/02/21 08:37:18;;;;;;;9.10;7.10;;;6.20;97.60;;;;;;5019670;28;20182;-89
2023/02/21 08:39:50;;;;;;;8.40;7.60;;;6.30;96.70;;;;;;5017926;28;20180;-88
2023/02/21 08:42:17;;;;;;;8.73;6.67;;;6.50;96.40;;;;;;5018620;28;20226;-87
2023/02/21 08:44:44;;;;;;;8.97;7.10;;;6.50;96.60;;;;;;5017470;28;20193;-87
2023/02/21 08:47:10;;;;;;;8.70;7.57;;;6.80;93.90;;;;;;5012221;28;20174;-88
2023/02/21 08:49:38;;;;;;;9.47;7.77;;;6.80;95.70;;;;;;5007390;28;20187;-89
2023/02/21 08:52:05;;;;;;;8.60;7.70;;;6.90;95.50;;;;;;5017185;28;20223;-88
2023/02/21 08:54:31;;;;;;;10.20;7.67;;;7.10;92.80;;;;;;5018594;28;20185;-87
2023/02/21 08:56:57;;;;;;;10.10;7.93;;;7.10;92.20;;;;;;5018136;28;20181;-87
2023/02/21 08:59:24;;;;;;;8.73;7.73;;;7.30;92.50;;;;;;5019115;28;20660;-88
2023/02/21 09:01:49;;;;;;;8.83;7.93;;;7.20;93.50;;;;;;5018522;28;20814;-91
2023/02/21 09:04:15;;;;;;;9.03;8.13;;;7.50;91.00;;;;;;5019805;28;20178;-87
2023/02/21 09:06:41;;;;;;;11.90;8.27;;;7.40;90.00;;;;;;5002614;28;20310;-88
2023/02/21 09:09:06;;;;;;;8.00;7.20;;;7.40;92.60;;;;;;5020696;28;20174;-88
2023/02/21 09:11:32;;;;;;;9.40;8.33;;;7.50;91.50;;;;;;5008731;28;20201;-89
2023/02/21 09:13:57;;;;;;;8.23;7.50;;;7.60;88.70;;;;;;5014145;28;20186;-88
2023/02/21 09:16:23;;;;;;;9.87;7.73;;;7.60;90.70;;;;;;5012345;28;20252;-88
2023/02/21 09:18:58;;;;;;;11.07;7.70;;;7.90;87.10;;;;;;5052549;22;20218;-87
2023/02/21 09:21:24;;;;;;;9.87;7.93;;;8.00;88.90;;;;;;5034868;28;20208;-86
2023/02/21 09:23:55;;;;;;;15.47;8.43;;;8.30;86.40;;;;;;5038114;28;20193;-86
2023/02/21 09:26:23;;;;;;;9.00;7.93;;;8.40;84.70;;;;;;5037619;28;20185;-86
2023/02/21 09:28:49;;;;;;;9.03;7.73;;;8.50;82.10;;;;;;5038807;28;20363;-86
2023/02/21 09:31:15;;;;;;;8.20;7.40;;;8.70;82.00;;;;;;5022951;28;20196;-86
2023/02/21 09:33:41;;;;;;;8.27;7.40;;;8.80;81.30;;;;;;5021030;28;20185;-86
2023/02/21 09:36:09;;;;;;;7.80;7.03;;;8.80;80.90;;;;;;5021022;28;20680;-85
2023/02/21 09:38:35;;;;;;;7.87;7.07;;;8.90;81.50;;;;;;5020604;28;20224;-85
2023/02/21 09:41:04;;;;;;;7.90;6.50;;;9.00;80.70;;;;;;5021339;28;20554;-86
2023/02/21 09:43:41;;;;;;;7.47;6.50;;;9.20;78.40;;;;;;5002318;28;20643;-87
2023/02/21 09:46:38;;;;;;;6.53;5.93;;;9.30;76.80;;;;;;5019935;28;20319;-88
2023/02/21 09:49:12;;;;;;;6.87;6.03;;;9.20;75.50;;;;;;5019604;28;20229;-86
2023/02/21 09:51:41;;;;;;;7.73;6.37;;;9.30;74.50;;;;;;5019255;28;20201;-87
2023/02/21 09:54:31;;;;;;;7.97;6.10;;;9.60;73.30;;;;;;5019029;28;20185;-86
2023/02/21 09:57:00;;;;;;;8.07;6.17;;;9.70;74.30;;;;;;5019691;28;20624;-84
2023/02/21 09:59:27;;;;;;;6.57;5.87;;;9.90;72.10;;;;;;5020578;28;20220;-85
2023/02/21 10:02:39;;;;;;;8.83;6.43;;;10.10;73.10;;;;;;5020916;28;20313;-84
2023/02/21 10:05:26;;;;;;;9.43;6.70;;;10.20;71.10;;;;;;5001750;28;20763;-87
2023/02/21 10:08:07;;;;;;;7.20;6.53;;;10.50;70.70;;;;;;5006317;28;20186;-87
2023/02/21 10:10:55;;;;;;;6.53;5.90;;;10.80;69.70;;;;;;5020904;28;20208;-83
2023/02/21 10:13:32;;;;;;;7.07;6.37;;;10.80;67.80;;;;;;5021325;28;20197;-87
2023/02/21 10:16:06;;;;;;;7.03;6.33;;;10.90;67.30;;;;;;5023234;28;20213;-87
2023/02/21 10:19:00;;;;;;;8.63;6.60;;;11.00;67.80;;;;;;5005597;28;20201;-87
2023/02/21 10:21:36;;;;;;;8.37;6.23;;;11.20;64.90;;;;;;5018582;28;20300;-86
2023/02/21 10:24:15;;;;;;;8.93;6.90;;;11.40;64.40;;;;;;5021511;28;20270;-86
2023/02/21 10:26:47;;;;;;;7.17;6.53;;;11.50;63.80;;;;;;5018584;28;20195;-86
2023/02/21 10:29:25;;;;;;;7.00;6.03;;;11.70;62.70;;;;;;5024140;28;20258;-85
2023/02/21 10:32:02;;;;;;;7.47;6.77;;;11.80;63.20;;;;;;5024201;28;20213;-85
2023/02/21 10:34:30;;;;;;;8.10;6.60;;;12.00;64.20;;;;;;5021389;28;20194;-86
2023/02/21 10:37:03;;;;;;;8.50;6.60;;;11.80;65.30;;;;;;5021181;28;20191;-86
2023/02/21 10:39:42;;;;;;;11.90;7.47;;;12.10;64.20;;;;;;5016471;28;20217;-86
2023/02/21 10:42:20;;;;;;;7.27;6.20;;;12.40;60.00;;;;;;5018407;28;20292;-85
2023/02/21 10:44:46;;;;;;;8.10;6.33;;;12.40;59.00;;;;;;5021739;28;20254;-88
2023/02/21 10:47:18;;;;;;;7.67;6.00;;;12.50;59.90;;;;;;5020696;28;20450;-84
2023/02/21 10:49:58;;;;;;;7.27;6.13;;;12.40;59.80;;;;;;5022143;28;20198;-84
2023/02/21 10:52:24;;;;;;;8.97;6.60;;;12.30;60.40;;;;;;5028619;28;20826;-86
2023/02/21 10:55:10;;;;;;;7.23;6.53;;;12.30;59.70;;;;;;5036552;28;20199;-87
2023/02/21 10:57:41;;;;;;;6.93;5.97;;;12.50;59.40;;;;;;5021567;28;20181;-86
2023/02/21 11:00:09;;;;;;;8.67;6.73;;;12.70;58.60;;;;;;5020514;28;20775;-84
2023/02/21 11:02:34;;;;;;;7.17;6.23;;;13.00;58.30;;;;;;5006131;28;20217;-87
2023/02/21 11:05:19;;;;;;;6.77;5.87;;;13.10;58.10;;;;;;5013872;28;20223;-89
2023/02/21 11:08:06;;;;;;;8.13;6.70;;;13.50;55.50;;;;;;5038387;28;20678;-86
2023/02/21 11:10:34;;;;;;;6.73;5.53;;;13.40;55.00;;;;;;5031585;28;20236;-88
2023/02/21 11:13:02;;;;;;;6.87;6.20;;;13.40;55.20;;;;;;5033833;28;20197;-87
2023/02/21 11:15:28;;;;;;;9.93;6.60;;;13.30;55.70;;;;;;5034578;28;20199;-87
2023/02/21 11:18:16;;;;;;;6.70;6.03;;;13.30;57.70;;;;;;5037037;28;20202;-89
2023/02/21 11:20:42;;;;;;;6.23;5.70;;;13.60;56.10;;;;;;5038286;28;20206;-88
2023/02/21 11:23:18;;;;;;;6.87;6.27;;;13.70;56.20;;;;;;5039274;28;20230;-88
2023/02/21 11:25:45;;;;;;;7.97;6.43;;;13.70;55.20;;;;;;5018485;28;20285;-87
2023/02/21 11:28:13;;;;;;;8.23;6.40;;;13.80;53.90;;;;;;5009726;28;20195;-85
2023/02/21 11:30:58;;;;;;;7.90;7.20;;;14.20;53.30;;;;;;5044084;28;20215;-85
2023/02/21 11:33:24;;;;;;;8.87;7.80;;;14.30;53.60;;;;;;4998001;28;20202;-86
2023/02/21 11:35:53;;;;;;;8.60;7.07;;;14.30;54.80;;;;;;5024100;28;20196;-86
2023/02/21 11:38:42;;;;;;;8.63;7.70;;;14.80;52.00;;;;;;5023303;28;20176;-85
2023/02/21 11:41:36;;;;;;;9.77;7.37;;;15.00;50.10;;;;;;5021105;28;20184;-87
2023/02/21 11:44:23;;;;;;;7.23;6.60;;;15.30;50.50;;;;;;4992686;28;20198;-86
2023/02/21 11:47:00;;;;;;;8.00;6.03;;;15.50;50.40;;;;;;5021256;28;20185;-87
2023/02/21 11:49:42;;;;;;;7.33;6.60;;;15.20;49.60;;;;;;5021545;28;20205;-87
2023/02/21 11:52:18;;;;;;;7.00;6.40;;;15.00;50.30;;;;;;5021804;28;20908;-85
2023/02/21 11:54:43;;;;;;;6.90;6.30;;;15.50;48.80;;;;;;5020494;28;20216;-86
2023/02/21 11:57:44;;;;;;;8.47;6.33;;;15.80;47.60;;;;;;5021495;28;20200;-87
2023/02/21 12:00:25;;;;;;;6.97;6.10;;;15.70;49.40;;;;;;5005212;28;20676;-85
2023/02/21 12:03:22;;;;;;;8.57;6.23;;;16.20;47.30;;;;;;5021915;28;20216;-86
2023/02/21 12:06:17;;;;;;;5.67;5.17;;;16.70;45.00;;;;;;5022743;28;20244;-84
2023/02/21 12:09:04;;;;;;;9.70;5.90;;;16.70;44.20;;;;;;5022287;28;20202;-85
2023/02/21 12:11:42;;;;;;;6.33;5.43;;;16.60;42.00;;;;;;5023618;28;20176;-84
2023/02/21 12:14:47;;;;;;;7.10;6.00;;;17.10;42.10;;;;;;5022412;28;20198;-85
2023/02/21 12:17:27;;;;;;;6.03;5.07;;;17.40;42.20;;;;;;4962037;28;20311;-85
2023/02/21 12:20:23;;;;;;;7.97;5.30;;;17.70;41.90;;;;;;4961968;28;20231;-86
2023/02/21 12:23:07;;;;;;;6.80;5.22;;;18.10;40.30;;;;;;4993517;28;20345;-86
2023/02/21 12:26:14;;;;;;;6.50;5.60;;;18.00;40.60;;;;;;5019077;28;20188;-86
2023/02/21 12:29:01;;;;;;;5.77;5.20;;;17.50;39.70;;;;;;4924957;29;20343;-85
2023/02/21 12:31:43;;;;;;;7.23;5.67;;;17.60;38.50;;;;;;4921150;29;20215;-85
2023/02/21 12:34:37;;;;;;;6.13;4.90;;;17.60;40.10;;;;;;4977598;28;20221;-85
2023/02/21 12:37:05;;;;;;;5.93;5.17;;;17.50;39.20;;;;;;5022206;28;20180;-87
2023/02/21 12:40:09;;;;;;;8.23;5.70;;;17.90;39.00;;;;;;5020549;28;20798;-85
2023/02/21 12:42:41;;;;;;;6.10;5.53;;;17.70;39.40;;;;;;4966987;28;20232;-87
2023/02/21 12:45:25;;;;;;;5.85;5.25;;;17.80;39.00;;;;;;5000201;28;20177;-85
2023/02/21 12:48:17;;;;;;;12.32;6.20;;;18.40;36.80;;;;;;5002216;28;20206;-84
2023/02/21 12:50:47;;;;;;;6.05;5.55;;;19.00;36.90;;;;;;5018969;28;20174;-85
2023/02/21 12:53:29;;;;;;;6.10;5.53;;;19.20;35.40;;;;;;5020447;28;20173;-86
2023/02/21 12:56:04;;;;;;;7.38;5.80;;;19.30;35.40;;;;;;5020509;28;20161;-88
2023/02/21 12:58:38;;;;;;;6.78;6.13;;;19.60;35.50;;;;;;5020433;28;20208;-88
2023/02/21 13:01:27;;;;;;;7.40;5.85;;;19.90;34.20;;;;;;5019893;28;20194;-86
2023/02/21 13:03:55;;;;;;;6.85;6.15;;;20.20;33.80;;;;;;5022143;28;20568;-86
2023/02/21 13:06:24;;;;;;;6.47;5.85;;;20.30;33.80;;;;;;5002895;28;20239;-84
2023/02/21 13:08:55;;;;;;;6.15;5.55;;;20.50;33.00;;;;;;5022587;28;20204;-85
2023/02/21 13:11:31;;;;;;;6.00;5.50;;;20.50;34.30;;;;;;5019781;28;20190;-87
2023/02/21 13:13:58;;;;;;;6.88;5.25;;;20.70;31.10;;;;;;5002552;28;20258;-87
2023/02/21 13:16:25;;;;;;;5.03;4.55;;;20.60;31.70;;;;;;5020477;28;20181;-88
2023/02/21 13:19:00;;;;;;;9.13;5.88;;;19.90;33.20;;;;;;5019440;28;20294;-88
2023/02/21 13:21:45;;;;;;;5.45;4.75;;;19.80;33.10;;;;;;5001696;28;20219;-87
2023/02/21 13:24:39;;;;;;;5.53;4.97;;;19.90;33.20;;;;;;4999638;28;20186;-88
2023/02/21 13:27:24;;;;;;;6.82;5.50;;;19.80;34.20;;;;;;5018116;28;20187;-88
2023/02/21 13:29:50;;;;;;;9.45;5.55;;;19.70;34.90;;;;;;5016527;28;20490;-87
2023/02/21 13:32:21;;;;;;;7.45;5.22;;;19.50;35.10;;;;;;4995826;28;20181;-86
2023/02/21 13:34:51;;;;;;;5.28;4.78;;;20.00;33.80;;;;;;5016237;28;20196;-87
2023/02/21 13:37:30;;;;;;;5.60;5.10;;;20.40;32.70;;;;;;5016904;28;20185;-87
2023/02/21 13:40:08;;;;;;;5.55;4.80;;;20.70;31.70;;;;;;5016973;28;20203;-87
2023/02/21 13:42:37;;;;;;;5.32;4.80;;;20.60;30.80;;;;;;5018214;28;20205;-87
2023/02/21 13:45:23;;;;;;;4.88;4.30;;;20.50;31.30;;;;;;5016525;28;20250;-87
2023/02/21 13:47:52;;;;;;;5.50;5.00;;;21.30;29.60;;;;;;5017470;28;20166;-87
2023/02/21 13:50:33;;;;;;;5.40;4.80;;;21.20;32.00;;;;;;5000060;28;20213;-87
2023/02/21 13:53:08;;;;;;;6.18;4.40;;;20.00;33.40;;;;;;5025336;28;20185;-87
2023/02/21 13:55:35;;;;;;;6.30;5.10;;;20.40;31.60;;;;;;5021922;28;20182;-86
2023/02/21 13:58:00;;;;;;;4.10;3.80;;;21.40;30.40;;;;;;5020765;28;20182;-87
2023/02/21 14:00:26;;;;;;;4.43;4.00;;;21.60;29.40;;;;;;5017797;28;20220;-87
2023/02/21 14:03:05;;;;;;;4.32;4.00;;;22.00;28.70;;;;;;5028049;28;20200;-87
2023/02/21 14:05:51;;;;;;;4.57;4.20;;;22.00;28.80;;;;;;5019739;28;20191;-88
2023/02/21 14:08:39;;;;;;;4.97;4.45;;;22.60;28.30;;;;;;5017212;28;20169;-86
2023/02/21 14:11:04;;;;;;;6.68;4.82;;;23.10;27.40;;;;;;5018092;28;20181;-88
2023/02/21 14:13:39;;;;;;;4.57;4.28;;;23.30;27.50;;;;;;4998650;28;20182;-86
2023/02/21 14:16:13;;;;;;;4.82;4.50;;;22.50;28.30;;;;;;5002273;28;20244;-87
2023/02/21 14:18:42;;;;;;;5.40;4.90;;;22.70;28.00;;;;;;5014272;28;20586;-86
2023/02/21 14:21:32;;;;;;;5.13;4.57;;;23.20;27.50;;;;;;5012644;28;20661;-85
2023/02/21 14:23:59;;;;;;;4.65;4.25;;;23.40;27.30;;;;;;5019085;28;20190;-86
2023/02/21 14:26:37;;;;;;;4.80;4.32;;;23.50;27.30;;;;;;5001398;28;20275;-87
2023/02/21 14:29:13;;;;;;;5.18;4.53;;;23.50;27.00;;;;;;5016534;28;20307;-87
2023/02/21 14:32:13;;;;;;;4.68;4.28;;;23.70;27.10;;;;;;4996413;28;20460;-87
2023/02/21 14:34:53;;;;;;;4.57;4.28;;;23.30;27.00;;;;;;4995478;28;20739;-86
2023/02/21 14:37:39;;;;;;;4.88;4.45;;;22.90;27.80;;;;;;5016507;28;21005;-86
2023/02/21 14:40:28;;;;;;;4.50;4.10;;;23.20;27.30;;;;;;5021882;28;20702;-87
2023/02/21 14:43:09;;;;;;;4.65;4.25;;;23.60;26.90;;;;;;5019808;28;20201;-87
2023/02/21 14:45:48;;;;;;;4.63;4.25;;;24.00;26.30;;;;;;5013530;28;20178;-86
2023/02/21 14:48:51;;;;;;;4.75;4.38;;;23.80;26.30;;;;;;5021697;28;20189;-87
2023/02/21 14:51:38;;;;;;;4.53;3.95;;;23.80;26.50;;;;;;5018162;28;20548;-85
2023/02/21 14:54:21;;;;;;;3.85;3.65;;;23.90;26.20;;;;;;5023450;28;20180;-86
2023/02/21 14:57:14;;;;;;;3.50;3.20;;;24.10;25.90;;;;;;5002414;28;20173;-87
2023/02/21 14:59:58;;;;;;;3.80;3.50;;;24.40;25.40;;;;;;5021300;28;20263;-87
2023/02/21 15:02:50;;;;;;;4.15;3.83;;;23.70;26.20;;;;;;5022292;28;20777;-86
2023/02/21 15:05:21;;;;;;;4.20;3.90;;;23.90;25.90;;;;;;4997993;28;20189;-86
2023/02/21 15:07:46;;;;;;;3.88;3.58;;;24.00;25.50;;;;;;4997376;28;20559;-87
2023/02/21 15:10:17;;;;;;;3.92;3.63;;;24.00;25.70;;;;;;5017783;28;20208;-85
2023/02/21 15:12:52;;;;;;;4.32;3.55;;;24.30;24.90;;;;;;5020842;28;20228;-85
2023/02/21 15:15:25;;;;;;;4.13;3.85;;;24.30;25.40;;;;;;5012707;28;20270;-86
2023/02/21 15:18:21;;;;;;;4.35;4.03;;;24.50;25.10;;;;;;5015575;28;20260;-87
2023/02/21 15:21:09;;;;;;;4.00;3.65;;;24.70;25.60;;;;;;5021533;28;20190;-86
2023/02/21 15:23:36;;;;;;;4.10;3.80;;;24.70;24.90;;;;;;5020888;28;20263;-87
2023/02/21 15:26:22;;;;;;;4.03;3.70;;;23.70;25.60;;;;;;5019878;28;20174;-88
2023/02/21 15:29:06;;;;;;;3.17;2.97;;;22.00;27.60;;;;;;5017156;28;20201;-88
2023/02/21 15:31:41;;;;;;;3.30;3.10;;;21.30;29.10;;;;;;5014640;28;20176;-85
2023/02/21 15:34:17;;;;;;;6.65;3.53;;;21.40;29.50;;;;;;5016134;28;20594;-89
2023/02/21 15:37:05;;;;;;;4.13;3.83;;;21.40;29.10;;;;;;5015565;28;20484;-87